Time;durP1;ratioP1;P1;durP2;ratioP2;P2;SDS_P1;SDS_P2;PMS_P1;PMS_P2;Temp;Humidity;BMP_temperature;BMP_pressure;BME280_temperature;BME280_humidity;BME280_pressure;Samples;Min_cycle;Max_cycle;Signal;HPM_P1;HPM_P2
2022/05/05 00:01:32;;;;;;;15.57;7.77;;;10.30;99.90;;;;;;5054886;28;20584;-53
2022/05/05 00:03:59;;;;;;;19.87;7.03;;;10.30;99.90;;;;;;5054676;28;20212;-53
2022/05/05 00:06:25;;;;;;;18.63;8.77;;;10.20;99.90;;;;;;5054545;28;20182;-52
2022/05/05 00:08:51;;;;;;;16.93;7.73;;;10.10;99.90;;;;;;5054482;28;20240;-50
2022/05/05 00:16:45;;;;;;;21.83;9.03;;;10.00;99.90;;;;;;5054830;28;20223;-53
2022/05/05 00:19:10;;;;;;;23.50;9.27;;;9.90;99.90;;;;;;5054291;28;20214;-53
2022/05/05 00:21:38;;;;;;;21.00;9.47;;;9.90;99.90;;;;;;5054041;28;20710;-54
2022/05/05 00:24:05;;;;;;;24.03;9.87;;;9.90;99.90;;;;;;5052869;28;20270;-51
2022/05/05 00:26:31;;;;;;;21.43;8.37;;;9.90;99.90;;;;;;5054395;28;20621;-53
2022/05/05 00:28:57;;;;;;;21.40;10.00;;;9.80;99.90;;;;;;5054106;28;20181;-53
2022/05/05 00:31:22;;;;;;;17.50;8.10;;;9.80;99.90;;;;;;5053980;28;20209;-50
2022/05/05 00:33:48;;;;;;;16.40;7.63;;;9.70;99.90;;;;;;5053969;28;20189;-56
2022/05/05 00:36:15;;;;;;;14.77;7.93;;;9.70;99.90;;;;;;5053699;28;20195;-54
2022/05/05 00:38:41;;;;;;;17.50;8.40;;;9.70;99.90;;;;;;5054375;28;20571;-51
2022/05/05 00:41:06;;;;;;;17.00;7.23;;;9.70;99.90;;;;;;5053541;28;20219;-53
2022/05/05 00:43:34;;;;;;;13.70;7.07;;;9.60;99.90;;;;;;5052814;28;20189;-53
2022/05/05 00:46:00;;;;;;;16.67;7.77;;;9.70;99.90;;;;;;5053907;28;20177;-49
2022/05/05 00:48:27;;;;;;;14.30;7.03;;;9.70;99.90;;;;;;5052280;28;20515;-52
2022/05/05 00:50:53;;;;;;;13.97;6.93;;;9.70;99.90;;;;;;5053946;28;20244;-52
2022/05/05 00:53:20;;;;;;;12.50;6.60;;;9.60;99.90;;;;;;5053768;28;20718;-53
2022/05/05 00:55:46;;;;;;;11.67;6.27;;;9.60;99.90;;;;;;5054012;28;20185;-49
2022/05/05 00:58:14;;;;;;;14.63;6.50;;;9.60;99.90;;;;;;5053423;28;20192;-48
2022/05/05 01:00:40;;;;;;;12.77;5.73;;;9.60;99.90;;;;;;5053670;28;20223;-54
2022/05/05 01:03:09;;;;;;;13.80;6.93;;;9.60;99.90;;;;;;5053297;28;20632;-50
2022/05/05 01:05:38;;;;;;;14.97;7.30;;;9.60;99.90;;;;;;5053408;28;20539;-56
2022/05/05 01:08:05;;;;;;;14.57;6.87;;;9.60;99.90;;;;;;5053163;28;20567;-51
2022/05/05 01:10:31;;;;;;;11.50;6.03;;;9.50;99.90;;;;;;5053436;28;20216;-51
2022/05/05 01:12:56;;;;;;;14.03;6.17;;;9.50;99.90;;;;;;5053508;28;20588;-50
2022/05/05 01:15:23;;;;;;;18.57;6.07;;;9.50;99.90;;;;;;5053041;28;20287;-51
2022/05/05 01:17:48;;;;;;;10.90;5.97;;;9.50;99.90;;;;;;5053557;28;20187;-49
2022/05/05 01:20:17;;;;;;;11.97;6.57;;;9.40;99.90;;;;;;5052963;28;20307;-50
2022/05/05 01:22:43;;;;;;;15.90;7.17;;;9.40;99.90;;;;;;5052584;28;20228;-51
2022/05/05 01:28:12;;;;;;;11.73;6.57;;;9.30;99.90;;;;;;5053252;28;20239;-52
2022/05/05 01:30:44;;;;;;;11.80;6.47;;;9.30;99.90;;;;;;5033373;28;20205;-51
2022/05/05 01:33:21;;;;;;;9.27;4.93;;;9.20;99.90;;;;;;5032889;28;20185;-52
2022/05/05 01:35:52;;;;;;;13.37;5.93;;;9.20;99.90;;;;;;5033473;28;20177;-52
2022/05/05 01:38:26;;;;;;;21.07;7.40;;;9.20;99.90;;;;;;5032581;28;20167;-52
2022/05/05 01:40:51;;;;;;;13.90;6.27;;;9.10;99.90;;;;;;5032885;28;20306;-51
2022/05/05 01:43:19;;;;;;;13.07;6.30;;;9.10;99.90;;;;;;5032609;28;20287;-59
2022/05/05 01:45:45;;;;;;;15.13;6.50;;;9.10;99.90;;;;;;5033011;28;20170;-49
2022/05/05 01:48:12;;;;;;;15.57;6.53;;;9.10;99.90;;;;;;5032673;28;20299;-54
2022/05/05 01:50:38;;;;;;;17.60;7.07;;;9.10;99.90;;;;;;5032865;28;20189;-51
2022/05/05 01:53:05;;;;;;;16.40;5.97;;;9.00;99.90;;;;;;5032409;28;20703;-59
2022/05/05 01:55:32;;;;;;;10.70;6.23;;;9.00;99.90;;;;;;5032987;28;20187;-51
2022/05/05 01:57:59;;;;;;;12.30;6.27;;;8.90;99.90;;;;;;5032870;28;20615;-54
2022/05/05 02:00:25;;;;;;;14.63;6.80;;;8.80;99.90;;;;;;5032292;28;20255;-50
2022/05/05 02:02:51;;;;;;;16.80;6.63;;;8.70;99.90;;;;;;5032470;28;20273;-51
2022/05/05 02:05:17;;;;;;;16.10;6.70;;;8.70;99.90;;;;;;5032371;28;20185;-54
2022/05/05 02:07:44;;;;;;;14.13;6.83;;;8.80;99.90;;;;;;5032210;28;20231;-48
2022/05/05 02:10:15;;;;;;;16.10;7.27;;;8.80;99.90;;;;;;5047529;28;20195;-52
2022/05/05 02:12:41;;;;;;;15.57;6.70;;;8.80;99.90;;;;;;5052382;28;20180;-50
2022/05/05 02:15:09;;;;;;;15.37;6.53;;;8.80;99.90;;;;;;5052111;28;20191;-51
2022/05/05 02:17:36;;;;;;;14.80;7.00;;;8.80;99.90;;;;;;5052286;28;20271;-57
2022/05/05 02:20:05;;;;;;;18.53;7.27;;;8.80;99.90;;;;;;5052246;28;20318;-53
2022/05/05 02:22:31;;;;;;;13.90;6.30;;;8.80;99.90;;;;;;5052315;28;20580;-49
2022/05/05 02:24:57;;;;;;;12.07;6.30;;;8.80;99.90;;;;;;5050645;28;20229;-50
2022/05/05 02:27:23;;;;;;;9.33;5.90;;;8.80;99.90;;;;;;5051774;28;20196;-50
2022/05/05 02:29:50;;;;;;;13.73;6.07;;;8.80;99.90;;;;;;5051845;28;20187;-50
2022/05/05 02:32:17;;;;;;;13.13;6.47;;;8.70;99.90;;;;;;5051715;28;20606;-53
2022/05/05 02:34:46;;;;;;;21.97;7.67;;;8.70;99.90;;;;;;5051948;28;20257;-51
2022/05/05 02:39:58;;;;;;;10.70;6.90;;;8.70;99.90;;;;;;5051354;28;20221;-51
2022/05/05 02:42:24;;;;;;;12.33;6.67;;;8.60;99.90;;;;;;5051272;28;20323;-51
2022/05/05 02:44:50;;;;;;;11.43;6.80;;;8.60;99.90;;;;;;5051644;28;20271;-50
2022/05/05 02:47:16;;;;;;;15.30;6.97;;;8.60;99.90;;;;;;5033936;28;20663;-53
2022/05/05 02:49:42;;;;;;;19.23;7.10;;;8.60;99.90;;;;;;5051646;28;20188;-53
2022/05/05 02:52:08;;;;;;;20.90;7.63;;;8.70;99.90;;;;;;5050264;28;20239;-60
2022/05/05 02:54:54;;;;;;;15.47;7.40;;;8.70;99.90;;;;;;5051139;28;20618;-53
2022/05/05 02:57:23;;;;;;;15.90;6.97;;;8.60;99.90;;;;;;5051537;28;20173;-53
2022/05/05 02:59:50;;;;;;;14.00;7.60;;;8.60;99.90;;;;;;5051576;28;20220;-55
2022/05/05 03:02:16;;;;;;;18.47;8.57;;;8.60;99.90;;;;;;5051645;28;20258;-52
2022/05/05 03:04:43;;;;;;;12.00;6.97;;;8.60;99.90;;;;;;5051590;28;20187;-53
2022/05/05 03:07:08;;;;;;;14.87;7.33;;;8.60;99.90;;;;;;5049989;28;20183;-61
2022/05/05 03:09:34;;;;;;;19.23;7.97;;;8.50;99.90;;;;;;5051558;28;20246;-53
2022/05/05 03:12:00;;;;;;;16.27;7.30;;;8.50;99.90;;;;;;5051500;28;20195;-53
2022/05/05 03:14:26;;;;;;;23.43;7.43;;;8.40;99.90;;;;;;5050007;28;20231;-52
2022/05/05 03:16:52;;;;;;;19.90;7.90;;;8.40;99.90;;;;;;5050278;28;20191;-50
2022/05/05 03:19:18;;;;;;;22.57;8.63;;;8.40;99.90;;;;;;5050858;28;20637;-52
2022/05/05 03:21:44;;;;;;;28.73;9.27;;;8.40;99.90;;;;;;5050733;28;20611;-49
2022/05/05 03:24:09;;;;;;;13.37;7.70;;;8.50;99.90;;;;;;5051012;28;20210;-62
2022/05/05 03:26:35;;;;;;;15.80;7.67;;;8.60;99.90;;;;;;5051100;28;20552;-50
2022/05/05 03:29:01;;;;;;;19.23;9.30;;;8.60;99.90;;;;;;5050596;28;20633;-53
2022/05/05 03:31:27;;;;;;;17.57;7.53;;;8.70;99.90;;;;;;5050823;28;20248;-52
2022/05/05 03:33:53;;;;;;;16.77;7.40;;;8.70;99.90;;;;;;5051182;28;20690;-52
2022/05/05 03:36:19;;;;;;;20.67;7.80;;;8.80;99.90;;;;;;5050818;28;20191;-50
2022/05/05 03:38:44;;;;;;;21.10;8.77;;;8.80;99.90;;;;;;5050564;28;20643;-53
2022/05/05 03:41:10;;;;;;;19.03;7.60;;;8.90;99.90;;;;;;5050311;28;20210;-59
2022/05/05 03:43:36;;;;;;;19.90;8.97;;;9.00;99.90;;;;;;5050651;28;20195;-52
2022/05/05 03:46:02;;;;;;;22.93;8.97;;;9.00;99.90;;;;;;5050854;28;20317;-53
2022/05/05 03:48:30;;;;;;;26.37;9.80;;;9.00;99.90;;;;;;5053485;28;20274;-53
2022/05/05 03:50:56;;;;;;;27.27;10.07;;;8.90;99.90;;;;;;5054194;28;20191;-54
2022/05/05 03:53:22;;;;;;;18.83;7.90;;;8.90;99.90;;;;;;5053985;28;20184;-55
2022/05/05 03:55:47;;;;;;;16.47;8.17;;;8.90;99.90;;;;;;5054160;28;20267;-53
2022/05/05 03:58:13;;;;;;;22.30;9.53;;;8.80;99.90;;;;;;5054315;28;20179;-55
2022/05/05 04:00:39;;;;;;;21.57;9.63;;;8.90;99.90;;;;;;5054400;28;20208;-53
2022/05/05 04:05:49;;;;;;;24.03;7.53;;;9.00;99.90;;;;;;5054083;28;20190;-52
2022/05/05 04:08:15;;;;;;;23.73;8.07;;;9.00;99.90;;;;;;5053584;28;20185;-48
2022/05/05 04:10:40;;;;;;;23.73;9.37;;;9.10;99.90;;;;;;5053955;28;20267;-51
2022/05/05 04:13:06;;;;;;;21.40;8.53;;;9.20;99.90;;;;;;5054056;28;20188;-55
2022/05/05 04:15:33;;;;;;;22.00;7.87;;;9.20;99.90;;;;;;5053386;28;20278;-54
2022/05/05 04:18:00;;;;;;;27.27;8.93;;;9.30;99.90;;;;;;5054045;28;20173;-54
2022/05/05 04:20:26;;;;;;;28.17;8.43;;;9.30;99.90;;;;;;5053773;28;20641;-55
2022/05/05 04:22:52;;;;;;;14.57;6.20;;;9.40;99.90;;;;;;5053592;28;20319;-56
2022/05/05 04:25:17;;;;;;;13.13;5.73;;;9.40;99.90;;;;;;5035354;28;20183;-51
2022/05/05 04:27:45;;;;;;;19.40;7.53;;;9.50;99.90;;;;;;5053856;28;20196;-53
2022/05/05 04:30:14;;;;;;;14.73;5.47;;;9.60;99.90;;;;;;5053419;28;20278;-54
2022/05/05 04:32:40;;;;;;;17.20;5.13;;;9.70;99.90;;;;;;5053166;28;20173;-52
2022/05/05 04:35:06;;;;;;;28.00;7.83;;;9.70;99.90;;;;;;5053407;28;20259;-55
2022/05/05 04:37:32;;;;;;;29.67;7.70;;;9.90;99.90;;;;;;5052814;28;20205;-54
2022/05/05 04:39:58;;;;;;;32.83;8.67;;;10.00;99.90;;;;;;5052977;28;20231;-54
2022/05/05 04:42:25;;;;;;;25.27;8.07;;;10.00;99.90;;;;;;5053330;28;20179;-54
2022/05/05 04:44:51;;;;;;;15.83;6.70;;;10.10;99.90;;;;;;5053163;28;20269;-53
2022/05/05 04:47:17;;;;;;;26.00;7.80;;;10.10;99.90;;;;;;5052874;28;20184;-52
2022/05/05 04:49:43;;;;;;;20.07;8.13;;;10.20;99.90;;;;;;5052702;28;20190;-56
2022/05/05 04:52:08;;;;;;;28.90;7.97;;;10.30;99.90;;;;;;5053018;28;20266;-52
2022/05/05 04:54:34;;;;;;;19.00;7.00;;;10.30;99.90;;;;;;5052737;28;20189;-53
2022/05/05 04:57:00;;;;;;;15.83;6.50;;;10.30;99.90;;;;;;5053002;28;20190;-52
2022/05/05 04:59:26;;;;;;;24.87;7.53;;;10.40;99.90;;;;;;5051440;28;20270;-54
2022/05/05 05:01:52;;;;;;;21.70;7.63;;;10.50;99.90;;;;;;5052321;28;20174;-54
2022/05/05 05:04:18;;;;;;;15.57;5.30;;;10.60;99.90;;;;;;5052401;28;20264;-54
2022/05/05 05:06:44;;;;;;;33.03;7.57;;;10.60;99.70;;;;;;5052478;28;20182;-54
2022/05/05 05:09:10;;;;;;;16.37;7.37;;;10.60;99.90;;;;;;5051360;28;20186;-56
2022/05/05 05:11:36;;;;;;;46.40;8.77;;;10.60;99.80;;;;;;5052070;28;20188;-49
2022/05/05 05:14:01;;;;;;;26.37;6.70;;;10.70;99.90;;;;;;5053052;28;20188;-53
2022/05/05 05:16:27;;;;;;;28.23;6.50;;;10.70;99.90;;;;;;5050921;28;20570;-54
2022/05/05 05:18:54;;;;;;;25.60;7.00;;;10.80;99.90;;;;;;5052542;28;20240;-56
2022/05/05 05:21:23;;;;;;;13.30;5.37;;;10.80;99.90;;;;;;5052029;28;20262;-56
2022/05/05 05:23:49;;;;;;;25.80;7.20;;;10.90;99.90;;;;;;5052739;28;20166;-53
2022/05/05 05:26:15;;;;;;;17.07;4.97;;;10.90;99.70;;;;;;5051129;28;20186;-55
2022/05/05 05:28:41;;;;;;;23.00;5.60;;;10.90;98.90;;;;;;5050760;28;20186;-54
2022/05/05 05:31:08;;;;;;;26.47;7.83;;;11.00;99.10;;;;;;5051878;28;20189;-55
2022/05/05 05:33:34;;;;;;;11.07;4.20;;;11.10;99.20;;;;;;5051753;28;20217;-55
2022/05/05 05:36:01;;;;;;;13.80;5.20;;;11.20;98.20;;;;;;5051552;28;20206;-59
2022/05/05 05:38:27;;;;;;;28.57;7.47;;;11.20;98.40;;;;;;5052416;28;20201;-61
2022/05/05 05:40:54;;;;;;;14.33;4.30;;;11.30;98.30;;;;;;5052106;28;20358;-59
2022/05/05 05:43:20;;;;;;;15.20;4.93;;;11.30;97.20;;;;;;5051339;28;20671;-59
2022/05/05 05:45:46;;;;;;;18.67;4.87;;;11.40;96.70;;;;;;5051720;28;20204;-60
2022/05/05 05:48:12;;;;;;;12.87;4.13;;;11.50;96.30;;;;;;5045458;28;20632;-57
2022/05/05 05:50:38;;;;;;;18.03;4.10;;;11.60;95.70;;;;;;5047273;28;20192;-60
2022/05/05 05:53:04;;;;;;;12.67;4.30;;;11.60;95.10;;;;;;5051751;28;20252;-60
2022/05/05 05:55:29;;;;;;;12.00;4.27;;;11.70;94.40;;;;;;5049729;28;20188;-62
2022/05/05 05:57:55;;;;;;;24.10;6.60;;;11.70;93.90;;;;;;5050440;28;20561;-64
2022/05/05 06:00:21;;;;;;;16.60;5.30;;;11.70;94.10;;;;;;5049167;28;20274;-61
2022/05/05 06:05:31;;;;;;;12.90;4.10;;;11.90;94.20;;;;;;5050278;28;20183;-60
2022/05/05 06:07:59;;;;;;;13.63;4.13;;;11.90;92.60;;;;;;5051225;28;20529;-62
2022/05/05 06:10:25;;;;;;;22.13;7.40;;;11.90;92.50;;;;;;5051096;28;20181;-63
2022/05/05 06:12:51;;;;;;;17.50;5.37;;;12.00;92.30;;;;;;5051331;28;20207;-62
2022/05/05 06:15:17;;;;;;;11.57;4.60;;;12.00;92.40;;;;;;5051340;28;20696;-65
2022/05/05 06:17:43;;;;;;;20.00;4.23;;;12.10;91.40;;;;;;5050557;28;20192;-60
2022/05/05 06:20:10;;;;;;;19.93;4.70;;;12.20;91.70;;;;;;5051170;28;20316;-61
2022/05/05 06:22:37;;;;;;;23.00;4.90;;;12.20;91.40;;;;;;5050299;28;20236;-63
2022/05/05 06:25:04;;;;;;;18.77;4.50;;;12.30;91.90;;;;;;5050750;28;20352;-62
2022/05/05 06:27:30;;;;;;;14.93;4.43;;;12.40;91.30;;;;;;5050829;28;20628;-60
2022/05/05 06:29:56;;;;;;;25.63;5.10;;;12.50;90.90;;;;;;5050148;28;20185;-56
2022/05/05 06:32:21;;;;;;;15.37;4.53;;;12.60;91.20;;;;;;5050440;28;20619;-59
2022/05/05 06:34:47;;;;;;;19.07;4.70;;;12.60;90.60;;;;;;5050483;28;20484;-59
2022/05/05 06:37:13;;;;;;;16.53;4.07;;;12.60;90.70;;;;;;5050589;28;20492;-54
2022/05/05 06:39:39;;;;;;;13.47;3.90;;;12.60;91.20;;;;;;5049802;28;20236;-55
2022/05/05 06:42:05;;;;;;;16.97;5.20;;;12.70;90.50;;;;;;5049163;28;20184;-57
2022/05/05 06:44:31;;;;;;;24.70;5.90;;;12.60;90.00;;;;;;5049088;28;20303;-62
2022/05/05 06:46:58;;;;;;;10.83;4.50;;;12.70;90.30;;;;;;5050235;28;20274;-67
2022/05/05 06:49:24;;;;;;;22.30;6.67;;;12.90;90.20;;;;;;5050031;28;20659;-61
2022/05/05 06:51:50;;;;;;;17.00;5.10;;;13.00;90.00;;;;;;5050250;28;20296;-55
2022/05/05 06:54:16;;;;;;;23.53;6.17;;;13.00;89.70;;;;;;5050834;28;20626;-57
2022/05/05 06:56:41;;;;;;;15.83;5.50;;;13.00;89.50;;;;;;5050109;28;20191;-59
2022/05/05 06:59:07;;;;;;;15.37;4.40;;;13.10;88.40;;;;;;5050221;28;20610;-61
2022/05/05 07:07:05;;;;;;;14.33;3.93;;;13.20;85.30;;;;;;5050106;28;20174;-59
2022/05/05 07:12:16;;;;;;;25.93;4.97;;;13.20;84.70;;;;;;5050258;28;20516;-56
2022/05/05 07:14:45;;;;;;;9.53;3.63;;;13.40;85.00;;;;;;5049661;28;20187;-55
2022/05/05 07:17:11;;;;;;;10.80;3.80;;;13.40;83.40;;;;;;5048996;28;20239;-54
2022/05/05 07:19:38;;;;;;;11.90;3.90;;;13.50;82.80;;;;;;5049731;28;20297;-56
2022/05/05 07:22:04;;;;;;;11.70;4.07;;;13.50;82.70;;;;;;5051315;28;20285;-56
2022/05/05 07:24:30;;;;;;;17.13;3.93;;;13.50;82.50;;;;;;5054333;28;20259;-55
2022/05/05 07:26:57;;;;;;;17.63;4.77;;;13.60;82.80;;;;;;5054172;28;20298;-56
2022/05/05 07:29:23;;;;;;;14.07;4.67;;;13.70;81.10;;;;;;5053133;28;20185;-54
2022/05/05 07:31:49;;;;;;;13.83;4.57;;;13.80;80.20;;;;;;5051930;28;20201;-57
2022/05/05 07:34:15;;;;;;;12.27;3.40;;;13.90;79.30;;;;;;5053136;28;20252;-54
2022/05/05 07:36:42;;;;;;;38.13;6.70;;;13.90;78.40;;;;;;5053180;28;20241;-57
2022/05/05 07:39:08;;;;;;;16.03;5.30;;;14.00;78.60;;;;;;5053091;28;20178;-55
2022/05/05 07:41:34;;;;;;;11.13;3.03;;;14.10;78.90;;;;;;5053025;28;20192;-57
2022/05/05 07:44:04;;;;;;;7.70;3.07;;;14.20;77.90;;;;;;5053477;28;20687;-59
2022/05/05 07:46:32;;;;;;;10.20;3.33;;;14.10;78.50;;;;;;5052856;28;20582;-55
2022/05/05 07:48:58;;;;;;;11.23;3.80;;;14.10;78.50;;;;;;5053727;28;20225;-56
2022/05/05 07:51:24;;;;;;;8.53;3.47;;;14.10;80.20;;;;;;5053277;28;20226;-57
2022/05/05 07:56:34;;;;;;;16.03;4.40;;;14.30;79.20;;;;;;5052986;28;20528;-54
2022/05/05 07:58:59;;;;;;;11.37;3.77;;;14.50;80.30;;;;;;5053524;28;20182;-56
2022/05/05 08:01:26;;;;;;;12.70;3.80;;;14.70;77.20;;;;;;5052798;28;20225;-60
2022/05/05 08:03:52;;;;;;;11.77;3.53;;;14.70;77.20;;;;;;5052907;28;20182;-54
2022/05/05 08:06:18;;;;;;;11.97;4.00;;;14.80;76.30;;;;;;5053917;28;20236;-56
2022/05/05 08:08:44;;;;;;;7.30;3.27;;;14.90;73.20;;;;;;5053133;28;20182;-57
2022/05/05 08:11:10;;;;;;;8.37;3.83;;;14.90;73.00;;;;;;5053491;28;20190;-56
2022/05/05 08:13:35;;;;;;;11.47;3.47;;;14.70;72.50;;;;;;5052785;28;20624;-54
2022/05/05 08:16:02;;;;;;;14.97;3.67;;;14.70;73.90;;;;;;5051586;28;20186;-55
2022/05/05 08:18:27;;;;;;;15.13;3.60;;;14.80;74.50;;;;;;5050416;28;20187;-55
2022/05/05 08:20:53;;;;;;;18.00;4.10;;;14.90;73.40;;;;;;5051826;28;20222;-55
2022/05/05 08:23:19;;;;;;;11.33;3.03;;;15.00;74.80;;;;;;5053278;28;20590;-60
2022/05/05 08:28:31;;;;;;;11.47;4.50;;;15.10;72.70;;;;;;5050210;28;20224;-54
2022/05/05 08:30:57;;;;;;;12.33;3.83;;;15.20;74.00;;;;;;5053470;28;20260;-57
2022/05/05 08:33:27;;;;;;;21.20;4.23;;;15.30;72.40;;;;;;5053097;28;20194;-54
2022/05/05 08:35:59;;;;;;;9.50;3.20;;;15.30;71.50;;;;;;5052885;28;20205;-57
2022/05/05 08:38:25;;;;;;;7.40;3.30;;;15.40;71.20;;;;;;5052913;28;20242;-57
2022/05/05 08:40:51;;;;;;;12.30;3.50;;;15.60;71.30;;;;;;5052437;28;20946;-54
2022/05/05 08:43:18;;;;;;;10.07;3.93;;;15.70;70.00;;;;;;5052940;28;20182;-55
2022/05/05 08:45:45;;;;;;;11.93;3.30;;;15.80;70.10;;;;;;5052618;28;20186;-53
2022/05/05 08:48:12;;;;;;;20.67;3.93;;;15.90;70.30;;;;;;5051290;28;20197;-57
2022/05/05 08:50:44;;;;;;;10.47;3.23;;;15.90;69.80;;;;;;5051852;28;20205;-57
2022/05/05 08:53:14;;;;;;;15.27;3.70;;;16.10;67.70;;;;;;5052059;28;20551;-57
2022/05/05 08:55:42;;;;;;;9.57;3.30;;;16.10;67.90;;;;;;5051541;28;20328;-57
2022/05/05 08:58:09;;;;;;;9.63;3.70;;;16.20;67.30;;;;;;5052151;28;20254;-53
2022/05/05 09:00:35;;;;;;;15.23;4.60;;;16.20;66.00;;;;;;5051441;28;20260;-55
2022/05/05 09:03:04;;;;;;;10.87;3.90;;;16.10;66.70;;;;;;5051858;28;20178;-59
2022/05/05 09:05:46;;;;;;;13.10;3.87;;;16.20;67.40;;;;;;5051624;28;20203;-54
2022/05/05 09:08:26;;;;;;;8.53;3.50;;;16.20;66.50;;;;;;5052051;28;20175;-54
2022/05/05 09:10:54;;;;;;;13.93;5.03;;;16.40;65.70;;;;;;5030243;28;20264;-59
2022/05/05 09:13:28;;;;;;;15.17;3.90;;;16.30;65.80;;;;;;5031753;28;20187;-64
2022/05/05 09:15:54;;;;;;;21.83;4.90;;;16.40;65.10;;;;;;5031815;28;20676;-58
2022/05/05 09:18:30;;;;;;;11.00;3.33;;;16.50;65.10;;;;;;5039485;28;20499;-64
2022/05/05 09:20:58;;;;;;;12.30;3.80;;;16.60;64.60;;;;;;5050779;28;20225;-55
2022/05/05 09:23:30;;;;;;;9.13;3.47;;;16.40;65.60;;;;;;5051396;28;20256;-56
2022/05/05 09:25:57;;;;;;;11.90;3.57;;;16.60;65.00;;;;;;5049422;28;20201;-59
2022/05/05 09:28:27;;;;;;;9.73;2.40;;;16.70;65.10;;;;;;5050023;28;20791;-57
2022/05/05 09:30:54;;;;;;;16.97;3.67;;;16.80;63.60;;;;;;5050379;28;20538;-59
2022/05/05 09:33:36;;;;;;;7.03;2.43;;;16.70;64.00;;;;;;5049733;28;20256;-65
2022/05/05 09:36:03;;;;;;;18.17;4.20;;;16.80;63.50;;;;;;5049142;28;20575;-57
2022/05/05 09:38:56;;;;;;;8.83;3.03;;;16.70;64.10;;;;;;5050589;28;20273;-59
2022/05/05 09:41:26;;;;;;;13.13;3.07;;;17.00;64.70;;;;;;5041099;28;20229;-62
2022/05/05 09:43:57;;;;;;;6.63;2.80;;;17.20;64.30;;;;;;5051786;28;20185;-56
2022/05/05 09:46:22;;;;;;;6.77;2.53;;;17.30;64.10;;;;;;5049959;28;20183;-59
2022/05/05 09:49:04;;;;;;;11.70;3.20;;;17.20;62.20;;;;;;5050104;28;20226;-58
2022/05/05 09:51:30;;;;;;;11.87;3.63;;;17.10;62.50;;;;;;5050866;28;20184;-58
2022/05/05 09:59:46;;;;;;;13.33;3.20;;;17.40;61.40;;;;;;5030528;28;20225;-60
2022/05/05 10:04:00;;;;;;;11.87;3.53;;;17.40;62.00;;;;;;5050037;28;20162;-57
2022/05/05 10:05:08;;;;;;;18.60;4.07;;;17.60;62.20;;;;;;5050556;28;20193;-58
2022/05/05 10:07:38;;;;;;;6.40;3.07;;;17.80;61.50;;;;;;5049963;28;20606;-60
2022/05/05 10:10:06;;;;;;;18.20;4.30;;;17.90;61.00;;;;;;5050798;28;20186;-56
2022/05/05 10:12:34;;;;;;;14.47;3.20;;;17.90;60.60;;;;;;5050899;28;20209;-54
2022/05/05 10:15:00;;;;;;;8.37;3.10;;;18.10;61.20;;;;;;5049990;28;20179;-57
2022/05/05 10:17:27;;;;;;;8.57;2.90;;;18.00;60.30;;;;;;5032897;28;20653;-57
2022/05/05 10:19:53;;;;;;;15.60;3.37;;;18.00;60.00;;;;;;5048802;28;20214;-55
2022/05/05 10:22:29;;;;;;;11.83;3.00;;;17.90;60.60;;;;;;5050857;28;20230;-54
2022/05/05 10:25:01;;;;;;;12.80;4.87;;;17.90;60.60;;;;;;5050895;28;20162;-56
2022/05/05 10:27:27;;;;;;;12.80;3.23;;;18.00;60.70;;;;;;5049934;28;20182;-57
2022/05/05 10:29:53;;;;;;;9.27;2.87;;;18.00;60.40;;;;;;5050521;28;20666;-57
2022/05/05 10:32:25;;;;;;;10.50;3.50;;;18.00;60.00;;;;;;5050438;28;20248;-59
2022/05/05 10:35:06;;;;;;;13.60;3.10;;;18.20;59.90;;;;;;5049884;28;20198;-56
2022/05/05 10:37:37;;;;;;;9.17;3.67;;;18.00;59.30;;;;;;5049746;28;20158;-58
2022/05/05 10:40:08;;;;;;;12.33;3.43;;;17.90;60.00;;;;;;5049911;28;20268;-57
2022/05/05 10:42:38;;;;;;;21.67;3.77;;;17.90;59.20;;;;;;5050059;28;20186;-58
2022/05/05 10:45:17;;;;;;;13.60;3.73;;;18.00;61.10;;;;;;5050041;28;20176;-54
2022/05/05 10:51:02;;;;;;;8.03;3.07;;;18.30;60.20;;;;;;5049755;28;20181;-56
2022/05/05 10:53:29;;;;;;;5.87;3.03;;;18.60;59.00;;;;;;5050231;28;20257;-59
2022/05/05 10:55:55;;;;;;;12.80;3.87;;;18.60;58.20;;;;;;5049566;28;20268;-54
2022/05/05 10:58:55;;;;;;;7.97;3.33;;;18.60;58.20;;;;;;5049712;28;20256;-56
2022/05/05 11:01:20;;;;;;;8.53;2.67;;;18.70;57.50;;;;;;5050273;28;20202;-55
2022/05/05 11:04:18;;;;;;;5.40;2.70;;;18.70;58.40;;;;;;5049921;28;20610;-57
2022/05/05 11:06:45;;;;;;;9.63;2.93;;;18.90;57.90;;;;;;5049478;28;20236;-58
2022/05/05 11:09:34;;;;;;;10.67;3.10;;;19.20;57.80;;;;;;5049682;28;20190;-57
2022/05/05 11:12:16;;;;;;;8.25;2.50;;;19.50;57.70;;;;;;5050134;28;20163;-58
2022/05/05 11:23:43;;;;;;;6.40;3.13;;;20.40;54.80;;;;;;5050114;28;20292;-56
2022/05/05 11:26:10;;;;;;;5.88;3.17;;;21.50;52.80;;;;;;5050535;28;20162;-56
2022/05/05 11:28:36;;;;;;;12.63;3.47;;;23.30;49.90;;;;;;5049636;28;20182;-58
2022/05/05 11:31:03;;;;;;;10.65;2.67;;;25.10;47.30;;;;;;5050120;28;20292;-56
2022/05/05 11:33:29;;;;;;;10.23;2.67;;;26.30;44.80;;;;;;5047759;28;20193;-57
2022/05/05 11:36:02;;;;;;;11.15;3.35;;;27.30;42.80;;;;;;5050103;28;20178;-59
2022/05/05 11:38:29;;;;;;;9.57;3.05;;;28.70;39.90;;;;;;5048776;28;20178;-59
2022/05/05 11:41:03;;;;;;;12.00;3.60;;;29.20;37.60;;;;;;5050336;28;20385;-58
2022/05/05 11:46:15;;;;;;;8.07;3.53;;;29.60;35.60;;;;;;5049254;28;20572;-59
2022/05/05 11:48:50;;;;;;;5.65;2.47;;;29.60;35.40;;;;;;5050164;28;20182;-58
2022/05/05 11:51:21;;;;;;;10.68;3.30;;;30.10;34.00;;;;;;5049825;28;20600;-58
2022/05/05 11:53:47;;;;;;;13.52;3.65;;;30.10;33.30;;;;;;5050037;28;20201;-58
2022/05/05 11:56:13;;;;;;;7.90;3.00;;;30.10;34.60;;;;;;5049931;28;20210;-56
2022/05/05 12:01:38;;;;;;;10.55;4.50;;;30.80;32.10;;;;;;5049865;28;20709;-62
2022/05/05 12:04:04;;;;;;;11.18;3.25;;;30.60;33.10;;;;;;5049006;28;20264;-59
2022/05/05 12:06:31;;;;;;;14.13;4.75;;;30.40;32.50;;;;;;5049934;28;20190;-60
2022/05/05 12:08:58;;;;;;;18.27;4.15;;;31.40;32.70;;;;;;5052271;28;20210;-59
2022/05/05 12:11:28;;;;;;;8.07;3.25;;;32.20;31.40;;;;;;5053736;28;20190;-62
2022/05/05 12:14:06;;;;;;;9.13;3.28;;;32.70;30.30;;;;;;5049567;28;20190;-60
2022/05/05 12:16:37;;;;;;;10.27;3.25;;;33.30;30.10;;;;;;5038296;28;20187;-56
2022/05/05 12:19:17;;;;;;;9.65;3.20;;;33.10;29.70;;;;;;5051402;28;20221;-59
2022/05/05 12:21:57;;;;;;;11.52;3.58;;;33.00;30.10;;;;;;5046835;28;20606;-61
2022/05/05 12:24:24;;;;;;;9.95;2.90;;;34.00;28.90;;;;;;5050447;28;20194;-57
2022/05/05 12:27:11;;;;;;;8.25;3.22;;;33.30;29.30;;;;;;5047519;28;20248;-62
2022/05/05 12:29:42;;;;;;;8.45;3.28;;;33.30;28.20;;;;;;5052403;28;20189;-59
2022/05/05 12:32:15;;;;;;;7.95;3.05;;;33.60;28.40;;;;;;5053148;28;20240;-58
2022/05/05 12:34:42;;;;;;;5.32;2.85;;;33.70;28.00;;;;;;5049257;28;20632;-59
2022/05/05 12:37:20;;;;;;;12.32;4.05;;;33.20;27.90;;;;;;5052127;28;20547;-59
2022/05/05 12:40:01;;;;;;;5.70;3.20;;;33.80;28.10;;;;;;5052297;28;20213;-58
2022/05/05 12:42:49;;;;;;;7.75;2.83;;;33.60;28.10;;;;;;5049791;28;20300;-58
2022/05/05 12:45:24;;;;;;;19.15;4.03;;;33.80;27.80;;;;;;5051945;28;20182;-59
2022/05/05 12:47:51;;;;;;;7.22;2.83;;;34.00;27.70;;;;;;5049882;28;20632;-58
2022/05/05 12:50:43;;;;;;;9.98;3.00;;;34.60;27.50;;;;;;5051049;28;20178;-58
2022/05/05 13:01:30;;;;;;;8.82;3.55;;;35.20;26.70;;;;;;5050508;28;20212;-63
2022/05/05 13:03:58;;;;;;;10.80;2.90;;;34.60;26.90;;;;;;5050957;28;20230;-59
2022/05/05 13:06:25;;;;;;;15.27;3.03;;;33.60;26.30;;;;;;5050707;28;20197;-59
2022/05/05 13:08:52;;;;;;;15.10;3.60;;;34.50;27.10;;;;;;5050071;28;20240;-60
2022/05/05 13:11:18;;;;;;;8.43;3.15;;;35.00;27.50;;;;;;5049290;28;20213;-60
2022/05/05 13:13:46;;;;;;;11.15;3.92;;;35.90;26.50;;;;;;5050222;28;20516;-57
2022/05/05 13:16:12;;;;;;;8.77;3.05;;;35.80;26.00;;;;;;5051142;28;20268;-60
2022/05/05 13:18:39;;;;;;;12.50;3.70;;;35.10;26.40;;;;;;5051682;28;20185;-58
2022/05/05 13:21:05;;;;;;;9.85;4.13;;;35.20;26.70;;;;;;5051327;28;20226;-60
2022/05/05 13:23:31;;;;;;;10.02;3.00;;;35.60;26.00;;;;;;5051946;28;20295;-61
2022/05/05 13:25:57;;;;;;;7.22;2.65;;;37.40;25.80;;;;;;5050763;28;20210;-59
2022/05/05 13:28:22;;;;;;;5.75;3.42;;;37.00;24.90;;;;;;5051628;28;20225;-58
2022/05/05 13:30:48;;;;;;;18.65;4.70;;;36.50;25.50;;;;;;5049777;28;20190;-59
2022/05/05 13:33:14;;;;;;;16.55;7.95;;;36.90;25.10;;;;;;5052191;28;20560;-58
2022/05/05 13:35:40;;;;;;;10.05;3.05;;;37.00;25.50;;;;;;5050599;28;20264;-58
2022/05/05 13:38:06;;;;;;;7.47;3.53;;;37.60;25.70;;;;;;5034206;28;20210;-57
2022/05/05 13:40:32;;;;;;;7.57;3.75;;;36.80;25.30;;;;;;5052217;28;20292;-60
2022/05/05 13:42:57;;;;;;;19.33;4.38;;;36.20;25.90;;;;;;5051797;28;20239;-61
2022/05/05 13:45:24;;;;;;;10.27;3.33;;;36.20;25.30;;;;;;5050389;28;20695;-59
2022/05/05 13:47:52;;;;;;;8.98;3.35;;;36.50;25.30;;;;;;5051636;28;20651;-58
2022/05/05 13:50:18;;;;;;;12.45;6.30;;;35.60;25.80;;;;;;5051368;28;20288;-59